createdAt,value
2023-10-10T00:01:19.353Z,99950.53
2023-10-10T00:04:03.809Z,99953.11
2023-10-10T00:06:43.431Z,99954.41
2023-10-10T00:09:21.127Z,99946.55
2023-10-10T00:11:54.841Z,99951.90
2023-10-10T00:14:30.137Z,99957.04
2023-10-10T00:17:02.930Z,99954.09
2023-10-10T00:19:44.268Z,99955.23
2023-10-10T00:22:22.496Z,99955.14
2023-10-10T00:24:54.526Z,99953.24
2023-10-10T00:27:26.429Z,99953.91
2023-10-10T00:30:03.289Z,99955.29
2023-10-10T00:32:37.268Z,99952.98
2023-10-10T00:35:11.896Z,99955.23
2023-10-10T00:37:46.356Z,99958.24
2023-10-10T00:40:26.666Z,99956.30
2023-10-10T00:42:59.858Z,99956.18
2023-10-10T00:45:36.902Z,99954.92
2023-10-10T00:48:10.846Z,99957.66
2023-10-10T00:50:49.554Z,99958.08
2023-10-10T00:53:23.330Z,99947.48
2023-10-10T00:55:58.752Z,99941.14
2023-10-10T00:58:37.989Z,99944.20
2023-10-10T01:01:13.829Z,99941.61
2023-10-10T01:03:51.639Z,99938.33
2023-10-10T01:06:27.398Z,99938.11
2023-10-10T01:09:01.280Z,99934.86
2023-10-10T01:11:33.518Z,99933.31
2023-10-10T01:14:05.742Z,99932.20
2023-10-10T01:16:41.754Z,99933.78
2023-10-10T01:19:17.441Z,99929.23
2023-10-10T01:21:59.097Z,99927.33
2023-10-10T01:24:32.796Z,99926.39
2023-10-10T01:27:17.135Z,99920.59
2023-10-10T01:29:57.465Z,99921.40
2023-10-10T01:32:30.719Z,99917.87
2023-10-10T01:35:03.313Z,99919.52
2023-10-10T01:37:42.357Z,99922.29
2023-10-10T01:40:18.121Z,99919.73
2023-10-10T01:42:55.647Z,99925.16
2023-10-10T01:45:31.138Z,99923.25
2023-10-10T01:48:09.534Z,99926.71
2023-10-10T01:50:42.458Z,99922.19
2023-10-10T01:53:14.348Z,99928.42
2023-10-10T01:55:49.184Z,99921.84
2023-10-10T01:58:21.728Z,99920.27
2023-10-10T02:00:55.805Z,99916.89
2023-10-10T02:03:29.156Z,99920.10
2023-10-10T02:06:01.208Z,99921.89
2023-10-10T02:08:36.342Z,99923.08
2023-10-10T02:11:13.792Z,99925.14
2023-10-10T02:13:48.628Z,99926.85
2023-10-10T02:16:26.023Z,99926.36
2023-10-10T02:19:00.619Z,99928.25
2023-10-10T02:21:44.586Z,99930.00
2023-10-10T02:24:39.909Z,99924.30
2023-10-10T02:27:14.600Z,99926.82
2023-10-10T02:29:50.956Z,99924.14
2023-10-10T02:32:24.041Z,99922.48
2023-10-10T02:35:16.133Z,99922.11
2023-10-10T02:37:48.546Z,99922.53
2023-10-10T02:40:32.217Z,99927.69
2023-10-10T02:43:32.527Z,99929.05
2023-10-10T02:46:07.155Z,99925.98
2023-10-10T02:48:43.615Z,99927.79
2023-10-10T02:51:17.378Z,99927.93
2023-10-10T02:53:49.417Z,99927.80
2023-10-10T02:56:21.583Z,99928.10
2023-10-10T02:58:55.789Z,99924.66
2023-10-10T03:01:53.075Z,99922.20
2023-10-10T03:04:42.492Z,99920.16
2023-10-10T03:07:28.908Z,99921.67
2023-10-10T03:10:24.087Z,99927.38
2023-10-10T03:13:09.595Z,99928.24
2023-10-10T03:15:51.309Z,99931.60
2023-10-10T03:18:30.182Z,99932.13
2023-10-10T03:21:37.180Z,99932.34
2023-10-10T03:24:16.902Z,99934.91
2023-10-10T03:27:02.026Z,99933.40
2023-10-10T03:29:48.424Z,99933.71
2023-10-10T03:32:32.418Z,99930.17
2023-10-10T03:35:14.689Z,99930.48
2023-10-10T03:37:55.436Z,99925.84
2023-10-10T03:40:48.707Z,99924.72
2023-10-10T03:43:38.137Z,99927.04
2023-10-10T03:46:27.297Z,99929.27
2023-10-10T03:49:16.920Z,99929.79
2023-10-10T03:52:07.346Z,99929.51
2023-10-10T03:54:57.195Z,99925.52
2023-10-10T03:57:47.287Z,99922.61
2023-10-10T04:00:36.938Z,99919.86
2023-10-10T04:03:27.263Z,99922.02
2023-10-10T04:06:25.186Z,99921.89
2023-10-10T04:09:15.672Z,99920.61
2023-10-10T04:12:05.043Z,99922.73
2023-10-10T04:14:54.515Z,99928.23
2023-10-10T04:17:46.001Z,99929.61
2023-10-10T04:20:35.168Z,99926.42
2023-10-10T04:23:24.746Z,99925.77
2023-10-10T04:26:13.849Z,99920.02
2023-10-10T04:29:02.965Z,99920.52
2023-10-10T04:31:52.511Z,99913.95
2023-10-10T04:34:41.790Z,99917.23
2023-10-10T04:37:31.312Z,99915.82
2023-10-10T04:40:20.818Z,99915.14
2023-10-10T04:43:10.813Z,99914.44
2023-10-10T04:46:00.263Z,99911.27
2023-10-10T04:48:53.900Z,99916.31
2023-10-10T04:51:43.905Z,99912.90
2023-10-10T04:54:33.550Z,99918.73
2023-10-10T04:57:22.931Z,99925.23
2023-10-10T05:00:12.495Z,99927.70
2023-10-10T05:03:02.041Z,99928.48
2023-10-10T05:05:51.723Z,99929.73
2023-10-10T05:08:40.973Z,99924.81
2023-10-10T05:11:30.841Z,99923.85
2023-10-10T05:14:26.006Z,99926.40
2023-10-10T05:17:15.800Z,99922.44
2023-10-10T05:20:05.685Z,99922.06
2023-10-10T05:22:57.012Z,99919.33
2023-10-10T05:25:33.267Z,99918.37
2023-10-10T05:28:05.719Z,99918.73
2023-10-10T05:30:46.962Z,99922.59
2023-10-10T05:33:21.085Z,99926.66
2023-10-10T05:36:00.582Z,99927.73
2023-10-10T05:38:32.577Z,99929.55
2023-10-10T05:41:12.772Z,99925.13
2023-10-10T05:43:45.089Z,99925.75
2023-10-10T05:46:17.305Z,99924.90
2023-10-10T05:48:49.568Z,99923.97
2023-10-10T05:51:21.465Z,99921.39
2023-10-10T05:53:52.092Z,99913.19
2023-10-10T05:56:25.020Z,99916.94
2023-10-10T05:58:57.755Z,99916.05
2023-10-10T06:01:32.852Z,99917.34
2023-10-10T06:04:04.820Z,99914.14
2023-10-10T06:06:37.981Z,99914.09
2023-10-10T06:09:27.659Z,99918.77
2023-10-10T06:12:05.450Z,99924.27
2023-10-10T06:14:37.932Z,99927.22
2023-10-10T06:17:13.649Z,99928.27
2023-10-10T06:19:48.261Z,99932.95
2023-10-10T06:22:20.270Z,99931.69
2023-10-10T06:24:57.501Z,99938.36
2023-10-10T06:27:30.066Z,99943.66
2023-10-10T06:30:02.249Z,99950.08
2023-10-10T06:32:34.522Z,99946.52
2023-10-10T06:35:27.983Z,99951.06
2023-10-10T06:37:59.961Z,99953.41
2023-10-10T06:40:31.954Z,99954.20
2023-10-10T06:43:09.190Z,99951.06
2023-10-10T06:45:42.348Z,99948.55
2023-10-10T06:48:18.016Z,99944.89
2023-10-10T06:50:51.988Z,99943.91
2023-10-10T06:53:36.891Z,99945.74
2023-10-10T06:56:20.364Z,99951.51
2023-10-10T06:59:28.669Z,99950.70
2023-10-10T07:02:14.193Z,99951.91
2023-10-10T07:04:53.726Z,99946.02
2023-10-10T07:07:27.778Z,99945.02
2023-10-10T07:10:00.571Z,99942.01
2023-10-10T07:12:33.081Z,99943.64
2023-10-10T07:15:07.824Z,99940.27
2023-10-10T07:17:40.381Z,99944.08
2023-10-10T07:20:31.152Z,99948.70
2023-10-10T07:23:04.122Z,99949.47
2023-10-10T07:25:45.274Z,99946.65
2023-10-10T07:28:19.056Z,99953.50
2023-10-10T07:30:52.016Z,99950.64
2023-10-10T07:33:27.647Z,99947.60
2023-10-10T07:36:01.590Z,99947.34
2023-10-10T07:38:36.883Z,99946.28
2023-10-10T07:41:09.945Z,99952.08
2023-10-10T07:43:43.548Z,99953.31
2023-10-10T07:46:18.878Z,99953.78
2023-10-10T07:48:55.578Z,99957.70
2023-10-10T07:51:33.389Z,99957.80
2023-10-10T07:54:14.046Z,99956.38
2023-10-10T07:56:49.033Z,99955.39
2023-10-10T07:59:23.866Z,99962.69
2023-10-10T08:01:57.789Z,99963.27
2023-10-10T08:04:30.024Z,99956.27
2023-10-10T08:07:05.433Z,99959.37
2023-10-10T08:09:38.660Z,99961.16
2023-10-10T08:12:10.672Z,99951.55
2023-10-10T08:14:46.178Z,99949.50
2023-10-10T08:17:21.286Z,99944.17
2023-10-10T08:19:53.180Z,99937.39
2023-10-10T08:22:30.398Z,99933.56
2023-10-10T08:25:02.346Z,99935.50
2023-10-10T08:27:35.580Z,99941.29
2023-10-10T08:30:14.914Z,99943.24
2023-10-10T08:32:50.303Z,99945.03
2023-10-10T08:35:24.127Z,99943.91
2023-10-10T08:37:57.856Z,99941.95
2023-10-10T08:40:37.051Z,99935.41
2023-10-10T08:43:10.396Z,99929.56
2023-10-10T08:45:51.327Z,99929.14
2023-10-10T08:48:27.736Z,99929.77
2023-10-10T08:51:05.234Z,99928.34
2023-10-10T08:53:40.952Z,99928.67
2023-10-10T08:56:16.860Z,99921.86
2023-10-10T08:58:49.536Z,99923.34
2023-10-10T09:01:23.702Z,99917.30
2023-10-10T09:03:58.822Z,99918.30
2023-10-10T09:06:47.115Z,99918.25
2023-10-10T09:09:38.741Z,99916.86
2023-10-10T09:12:16.501Z,99918.73
2023-10-10T09:14:51.558Z,99919.89
2023-10-10T09:17:34.211Z,99922.42
2023-10-10T09:20:19.131Z,99921.84
2023-10-10T09:22:53.465Z,99923.73
2023-10-10T09:25:27.916Z,99922.60
2023-10-10T09:28:05.304Z,99918.98
2023-10-10T09:30:42.121Z,99921.77
2023-10-10T09:33:24.597Z,99914.29
2023-10-10T09:36:10.084Z,99914.02
2023-10-10T09:38:47.065Z,99913.24
2023-10-10T09:41:37.391Z,99913.65
2023-10-10T09:44:38.435Z,99913.48
2023-10-10T09:47:38.458Z,99914.10
2023-10-10T09:50:36.652Z,99911.36
2023-10-10T09:53:21.836Z,99913.20
2023-10-10T09:55:55.787Z,99908.95
2023-10-10T09:58:29.827Z,99902.73
2023-10-10T10:01:15.903Z,99901.74
2023-10-10T10:04:04.448Z,99902.14
2023-10-10T10:07:07.491Z,99904.14
2023-10-10T10:10:20.094Z,99906.34
2023-10-10T10:13:15.292Z,99907.49
2023-10-10T10:16:10.082Z,99907.34
2023-10-10T10:18:48.037Z,99904.20
2023-10-10T10:21:32.721Z,99908.69
2023-10-10T10:24:28.010Z,99898.33
2023-10-10T10:27:26.083Z,99898.15
2023-10-10T10:30:11.949Z,99896.56
2023-10-10T10:32:45.937Z,99903.09
2023-10-10T10:35:23.243Z,99903.15
2023-10-10T10:38:01.625Z,99898.13
2023-10-10T10:40:47.809Z,99890.77
2023-10-10T10:43:34.092Z,99887.55
2023-10-10T10:46:16.995Z,99888.64
2023-10-10T10:52:20.772Z,99884.37
2023-10-10T10:55:22.168Z,99878.92
2023-10-10T10:58:07.497Z,99873.42
2023-10-10T11:03:46.231Z,99867.17
2023-10-10T11:06:26.087Z,99865.42
2023-10-10T11:09:10.951Z,99865.23
2023-10-10T11:11:43.203Z,99860.83
2023-10-10T11:14:20.665Z,99859.47
2023-10-10T11:16:58.565Z,99856.42
2023-10-10T11:19:41.087Z,99855.10
2023-10-10T11:22:18.546Z,99849.67
2023-10-10T11:24:59.129Z,99845.72
2023-10-10T11:27:31.255Z,99842.78
2023-10-10T11:30:09.404Z,99841.97
2023-10-10T11:32:48.775Z,99838.63
2023-10-10T11:35:28.314Z,99841.80
2023-10-10T11:38:07.856Z,99841.16
2023-10-10T11:40:44.700Z,99839.09
2023-10-10T11:43:18.737Z,99841.69
2023-10-10T11:45:55.277Z,99836.20
2023-10-10T11:48:30.911Z,99833.12
2023-10-10T11:51:02.776Z,99831.52
2023-10-10T11:53:38.290Z,99832.48
2023-10-10T11:56:18.026Z,99828.42
2023-10-10T11:58:50.883Z,99827.27
2023-10-10T12:01:48.900Z,99827.08
2023-10-10T12:04:33.319Z,99824.38
2023-10-10T12:07:08.033Z,99823.07
2023-10-10T12:09:40.121Z,99824.75
2023-10-10T12:12:11.988Z,99818.50
2023-10-10T12:14:44.267Z,99814.37
2023-10-10T12:17:18.724Z,99813.04
2023-10-10T12:19:51.319Z,99808.92
2023-10-10T12:22:23.989Z,99805.33
2023-10-10T12:24:56.556Z,99804.29
2023-10-10T12:27:31.503Z,99800.84
2023-10-10T12:30:06.247Z,99794.54
2023-10-10T12:32:38.284Z,99793.11
2023-10-10T12:35:12.435Z,99788.98
2023-10-10T12:37:46.178Z,99785.17
2023-10-10T12:40:18.507Z,99785.72
2023-10-10T12:42:50.494Z,99778.88
2023-10-10T12:45:22.360Z,99777.58
2023-10-10T12:47:54.636Z,99776.59
2023-10-10T12:50:28.165Z,99773.41
2023-10-10T12:53:09.026Z,99771.21
2023-10-10T12:55:50.132Z,99774.46
2023-10-10T12:58:26.175Z,99776.77
2023-10-10T13:00:59.650Z,99774.91
2023-10-10T13:03:32.832Z,99772.31
2023-10-10T13:06:05.871Z,99766.94
2023-10-10T13:08:40.863Z,99764.27
2023-10-10T13:11:16.498Z,99758.95
2023-10-10T13:13:50.325Z,99754.94
2023-10-10T13:16:26.725Z,99757.13
2023-10-10T13:19:00.042Z,99751.04
2023-10-10T13:21:32.013Z,99748.58
2023-10-10T13:24:04.572Z,99745.17
2023-10-10T13:26:37.602Z,99747.45
2023-10-10T13:29:10.265Z,99748.41
2023-10-10T13:31:42.590Z,99744.91
2023-10-10T13:34:18.334Z,99742.84
2023-10-10T13:36:51.047Z,99742.09
2023-10-10T13:39:34.713Z,99744.34
2023-10-10T13:42:07.827Z,99737.11
2023-10-10T13:44:40.569Z,99734.13
2023-10-10T13:47:13.231Z,99732.48
2023-10-10T13:49:46.614Z,99731.45
2023-10-10T13:52:18.564Z,99728.63
2023-10-10T13:54:53.313Z,99727.48
2023-10-10T13:57:25.252Z,99723.21
2023-10-10T13:59:58.205Z,99720.63
2023-10-10T14:02:32.841Z,99716.06
2023-10-10T14:05:07.561Z,99715.45
2023-10-10T14:07:40.172Z,99709.55
2023-10-10T14:10:12.641Z,99714.48
2023-10-10T14:12:45.477Z,99710.10
2023-10-10T14:15:19.852Z,99710.83
2023-10-10T14:17:53.306Z,99712.95
2023-10-10T14:20:26.484Z,99709.58
2023-10-10T14:22:58.308Z,99714.95
2023-10-10T14:25:38.665Z,99711.30
2023-10-10T14:28:11.467Z,99710.42
2023-10-10T14:30:43.563Z,99710.42
2023-10-10T14:33:15.896Z,99707.81
2023-10-10T14:35:48.320Z,99706.55
2023-10-10T14:38:20.771Z,99704.52
2023-10-10T14:40:52.895Z,99710.83
2023-10-10T14:43:24.892Z,99710.34
2023-10-10T14:45:58.259Z,99717.40
2023-10-10T14:48:31.562Z,99716.84
2023-10-10T14:51:07.166Z,99713.97
2023-10-10T14:53:39.292Z,99713.32
2023-10-10T14:56:12.418Z,99715.02
2023-10-10T14:58:44.430Z,99713.95
2023-10-10T15:01:19.239Z,99716.27
2023-10-10T15:03:51.667Z,99716.58
2023-10-10T15:06:30.160Z,99718.24
2023-10-10T15:09:02.827Z,99719.36
2023-10-10T15:11:35.393Z,99718.65
2023-10-10T15:14:08.187Z,99716.44
2023-10-10T15:16:41.087Z,99712.69
2023-10-10T15:19:13.126Z,99716.01
2023-10-10T15:21:49.827Z,99713.52
2023-10-10T15:24:24.826Z,99709.61
2023-10-10T15:26:57.493Z,99710.84
2023-10-10T15:29:32.793Z,99705.58
2023-10-10T15:32:05.877Z,99711.44
2023-10-10T15:34:42.067Z,99711.62
2023-10-10T15:37:16.923Z,99708.09
2023-10-10T15:39:49.495Z,99706.92
2023-10-10T15:42:22.421Z,99706.23
2023-10-10T15:44:55.441Z,99708.13
2023-10-10T15:47:28.819Z,99709.15
2023-10-10T15:50:01.918Z,99712.33
2023-10-10T15:52:35.063Z,99712.98
2023-10-10T15:55:12.203Z,99714.58
2023-10-10T15:57:44.343Z,99713.39
2023-10-10T16:00:18.430Z,99711.46
2023-10-10T16:02:54.060Z,99718.14
2023-10-10T16:05:26.701Z,99716.55
2023-10-10T16:08:08.902Z,99715.97
2023-10-10T16:10:43.030Z,99714.80
2023-10-10T16:13:15.317Z,99718.77
2023-10-10T16:15:47.240Z,99717.41
2023-10-10T16:18:20.475Z,99716.17
2023-10-10T16:20:53.713Z,99717.60
2023-10-10T16:23:25.901Z,99718.88
2023-10-10T16:25:58.884Z,99720.52
2023-10-10T16:28:32.125Z,99724.70
2023-10-10T16:31:12.333Z,99724.83
2023-10-10T16:33:44.289Z,99728.66
2023-10-10T16:36:19.418Z,99730.48
2023-10-10T16:38:53.279Z,99729.81
2023-10-10T16:41:25.666Z,99726.68
2023-10-10T16:44:01.715Z,99725.48
2023-10-10T16:46:34.230Z,99720.96
2023-10-10T16:49:07.501Z,99720.68
2023-10-10T16:51:39.327Z,99719.31
2023-10-10T16:54:14.147Z,99723.75
2023-10-10T16:56:46.119Z,99720.70
2023-10-10T16:59:18.250Z,99721.30
2023-10-10T17:01:50.793Z,99718.42
2023-10-10T17:04:25.928Z,99717.95
2023-10-10T17:07:00.168Z,99722.95
2023-10-10T17:09:36.972Z,99721.46
2023-10-10T17:12:09.453Z,99722.29
2023-10-10T17:14:41.385Z,99723.11
2023-10-10T17:17:16.215Z,99723.81
2023-10-10T17:19:47.976Z,99724.16
2023-10-10T17:22:19.838Z,99726.30
2023-10-10T17:24:51.655Z,99724.21
2023-10-10T17:27:23.441Z,99724.39
2023-10-10T17:29:58.319Z,99725.28
2023-10-10T17:32:30.466Z,99726.05
2023-10-10T17:35:05.933Z,99722.91
2023-10-10T17:37:37.894Z,99723.11
2023-10-10T17:40:14.788Z,99724.59
2023-10-10T17:42:48.576Z,99726.12
2023-10-10T17:45:20.782Z,99729.11
2023-10-10T17:47:53.519Z,99734.38
2023-10-10T17:50:25.622Z,99732.89
2023-10-10T17:52:58.233Z,99735.20
2023-10-10T17:55:29.995Z,99738.05
2023-10-10T17:58:04.564Z,99743.23
2023-10-10T18:00:36.531Z,99741.69
2023-10-10T18:03:10.204Z,99747.21
2023-10-10T18:05:44.312Z,99741.11
2023-10-10T18:08:17.938Z,99745.61
2023-10-10T18:10:49.840Z,99744.73
2023-10-10T18:13:21.671Z,99741.84
2023-10-10T18:15:53.934Z,99743.16
2023-10-10T18:18:30.154Z,99742.39
2023-10-10T18:21:02.301Z,99742.85
2023-10-10T18:23:34.167Z,99738.45
2023-10-10T18:26:14.025Z,99737.70
2023-10-10T18:28:46.157Z,99735.35
2023-10-10T18:31:18.450Z,99738.23
2023-10-10T18:33:53.265Z,99734.02
2023-10-10T18:36:25.405Z,99728.43
2023-10-10T18:39:01.612Z,99726.14
2023-10-10T18:41:34.035Z,99719.55
2023-10-10T18:44:06.229Z,99718.64
2023-10-10T18:46:38.997Z,99716.41
2023-10-10T18:49:10.857Z,99715.79
2023-10-10T18:51:41.176Z,99713.36
2023-10-10T18:54:13.672Z,99716.25
2023-10-10T18:56:46.355Z,99717.85
2023-10-10T18:59:18.305Z,99718.42
2023-10-10T19:01:51.693Z,99717.48
2023-10-10T19:04:23.608Z,99716.31
2023-10-10T19:06:55.893Z,99717.09
2023-10-10T19:09:27.713Z,99714.56
2023-10-10T19:11:59.562Z,99713.98
2023-10-10T19:14:35.801Z,99711.96
2023-10-10T19:17:07.670Z,99711.19
2023-10-10T19:19:39.951Z,99711.88
2023-10-10T19:22:11.752Z,99710.52
2023-10-10T19:24:43.490Z,99706.58
2023-10-10T19:27:13.758Z,99708.73
2023-10-10T19:29:46.261Z,99705.52
2023-10-10T19:32:19.854Z,99704.91
2023-10-10T19:34:51.637Z,99701.05
2023-10-10T19:37:21.848Z,99703.56
2023-10-10T19:39:56.281Z,99703.20
2023-10-10T19:42:29.886Z,99707.02
2023-10-10T19:45:14.834Z,99706.13
2023-10-10T19:47:58.856Z,99704.96
2023-10-10T19:50:30.924Z,99706.89
2023-10-10T19:53:03.836Z,99706.96
2023-10-10T19:55:38.863Z,99706.64
2023-10-10T19:58:11.031Z,99707.65
2023-10-10T20:00:47.091Z,99706.64
2023-10-10T20:03:23.546Z,99708.79
2023-10-10T20:05:56.410Z,99705.14
2023-10-10T20:08:30.410Z,99700.35
2023-10-10T20:11:04.817Z,99701.38
2023-10-10T20:13:36.901Z,99698.69
2023-10-10T20:16:16.341Z,99696.35
2023-10-10T20:18:49.217Z,99692.44
2023-10-10T20:21:21.166Z,99695.48
2023-10-10T20:23:53.090Z,99694.73
2023-10-10T20:26:26.958Z,99696.28
2023-10-10T20:28:59.092Z,99695.60
2023-10-10T20:31:30.878Z,99693.92
2023-10-10T20:34:01.096Z,99694.29
2023-10-10T20:36:36.217Z,99697.15
2023-10-10T20:39:08.206Z,99693.34
2023-10-10T20:41:40.081Z,99692.02
2023-10-10T20:44:11.064Z,99691.15
2023-10-10T20:46:43.023Z,99691.95
2023-10-10T20:49:17.198Z,99688.81
2023-10-10T20:51:55.997Z,99680.27
2023-10-10T20:54:28.493Z,99676.19
2023-10-10T20:57:02.754Z,99675.94
2023-10-10T20:59:35.498Z,99673.97
2023-10-10T21:02:08.231Z,99671.34
2023-10-10T21:04:40.166Z,99675.92
2023-10-10T21:07:12.206Z,99669.42
2023-10-10T21:09:44.597Z,99667.36
2023-10-10T21:12:16.621Z,99664.95
2023-10-10T21:14:48.878Z,99665.16
2023-10-10T21:17:20.873Z,99664.34
2023-10-10T21:19:53.000Z,99668.45
2023-10-10T21:22:24.827Z,99669.26
2023-10-10T21:24:55.218Z,99668.27
2023-10-10T21:27:27.031Z,99668.77
2023-10-10T21:29:58.539Z,99667.36
2023-10-10T21:32:31.837Z,99664.09
2023-10-10T21:35:09.953Z,99662.67
2023-10-10T21:37:44.547Z,99658.55
2023-10-10T21:40:21.454Z,99655.66
2023-10-10T21:42:55.215Z,99659.89
2023-10-10T21:45:33.559Z,99658.14
2023-10-10T21:48:06.998Z,99658.52
2023-10-10T21:50:41.976Z,99659.27
2023-10-10T21:53:14.180Z,99656.36
2023-10-10T21:55:44.569Z,99654.27
2023-10-10T21:58:16.512Z,99653.61
2023-10-10T22:00:56.499Z,99657.39
2023-10-10T22:03:28.936Z,99653.08
2023-10-10T22:06:02.871Z,99653.40
2023-10-10T22:08:37.807Z,99653.19
2023-10-10T22:11:10.093Z,99653.08
2023-10-10T22:13:42.057Z,99651.06
2023-10-10T22:16:13.967Z,99648.91
2023-10-10T22:18:48.642Z,99649.31
2023-10-10T22:21:23.645Z,99648.59
2023-10-10T22:23:56.779Z,99647.06
2023-10-10T22:26:28.874Z,99641.77
2023-10-10T22:29:00.724Z,99637.80
2023-10-10T22:31:32.990Z,99640.70
2023-10-10T22:34:09.289Z,99639.73
2023-10-10T22:36:42.458Z,99641.30
2023-10-10T22:39:17.751Z,99642.91
2023-10-10T22:41:49.682Z,99645.45
2023-10-10T22:44:20.451Z,99643.66
2023-10-10T22:46:50.730Z,99643.80
2023-10-10T22:49:22.522Z,99641.35
2023-10-10T22:51:54.299Z,99640.17
2023-10-10T22:54:26.168Z,99635.75
2023-10-10T22:56:57.390Z,99633.11
2023-10-10T22:59:29.148Z,99637.12
2023-10-10T23:02:01.046Z,99637.54
2023-10-10T23:04:35.240Z,99634.63
2023-10-10T23:07:08.369Z,99633.61
2023-10-10T23:09:42.710Z,99632.18
2023-10-10T23:12:15.592Z,99633.06
2023-10-10T23:14:47.439Z,99631.62
2023-10-10T23:17:21.128Z,99627.79
2023-10-10T23:19:52.985Z,99633.33
2023-10-10T23:22:24.230Z,99631.86
2023-10-10T23:24:56.389Z,99628.41
2023-10-10T23:27:28.406Z,99631.10
2023-10-10T23:30:00.846Z,99633.75
2023-10-10T23:32:32.841Z,99630.79
2023-10-10T23:35:09.565Z,99627.52
2023-10-10T23:37:43.613Z,99629.95
2023-10-10T23:40:17.187Z,99630.20
2023-10-10T23:42:52.898Z,99629.30
2023-10-10T23:45:25.482Z,99625.66
2023-10-10T23:47:59.086Z,99628.17
2023-10-10T23:50:39.767Z,99629.23
2023-10-10T23:53:14.810Z,99626.11
2023-10-10T23:55:48.333Z,99626.06
2023-10-10T23:58:22.915Z,99625.52
